Time;durP1;ratioP1;P1;durP2;ratioP2;P2;SDS_P1;SDS_P2;PMS_P1;PMS_P2;Temp;Humidity;BMP_temperature;BMP_pressure;BME280_temperature;BME280_humidity;BME280_pressure;Samples;Min_cycle;Max_cycle;Signal;HPM_P1;HPM_P2
2023/06/23 00:01:20;;;;;;;5.50;4.43;;;18.70;99.90;;;;;;5049418;28;20028;-72
2023/06/23 00:03:46;;;;;;;4.43;4.03;;;18.70;99.90;;;;;;5049902;28;20389;-72
2023/06/23 00:06:13;;;;;;;5.28;3.63;;;18.60;99.90;;;;;;5049120;28;20121;-72
2023/06/23 00:08:42;;;;;;;4.93;3.85;;;18.60;99.90;;;;;;5048775;28;20358;-72
2023/06/23 00:11:10;;;;;;;4.80;3.90;;;18.60;99.90;;;;;;5050390;28;20056;-72
2023/06/23 00:13:37;;;;;;;6.35;3.90;;;18.60;99.90;;;;;;5050131;28;20033;-72
2023/06/23 00:16:05;;;;;;;3.97;3.63;;;18.60;99.90;;;;;;5050344;28;20209;-72
2023/06/23 00:18:36;;;;;;;4.05;3.65;;;18.60;99.90;;;;;;5050364;28;20033;-73
2023/06/23 00:21:04;;;;;;;4.35;3.63;;;18.60;99.90;;;;;;5048829;28;20028;-72
2023/06/23 00:23:30;;;;;;;4.97;3.97;;;18.60;99.90;;;;;;5050289;28;20037;-72
2023/06/23 00:25:57;;;;;;;4.80;3.83;;;18.50;99.90;;;;;;5049710;28;20418;-72
2023/06/23 00:28:23;;;;;;;4.28;3.83;;;18.50;99.90;;;;;;5050208;28;20049;-72
2023/06/23 00:30:49;;;;;;;7.85;3.53;;;18.50;99.90;;;;;;5049819;28;20323;-72
2023/06/23 00:33:15;;;;;;;4.30;3.10;;;18.50;99.90;;;;;;5049673;28;20455;-72
2023/06/23 00:35:41;;;;;;;4.57;3.38;;;18.40;99.90;;;;;;5049540;28;20056;-70
2023/06/23 00:38:07;;;;;;;3.90;3.60;;;18.40;99.90;;;;;;5048680;28;20481;-71
2023/06/23 00:40:34;;;;;;;5.55;3.30;;;18.40;99.90;;;;;;5049808;28;20028;-73
2023/06/23 00:43:00;;;;;;;2.95;2.75;;;18.40;99.90;;;;;;5049776;28;20043;-72
2023/06/23 00:45:26;;;;;;;3.80;3.40;;;18.40;99.90;;;;;;5050044;28;20061;-71
2023/06/23 00:47:52;;;;;;;3.25;2.95;;;18.40;99.90;;;;;;5048893;28;20052;-72
2023/06/23 00:50:23;;;;;;;3.97;3.13;;;18.40;99.90;;;;;;5050052;28;20021;-72
2023/06/23 00:52:51;;;;;;;3.75;3.30;;;18.40;99.90;;;;;;5049282;28;20031;-72
2023/06/23 00:55:25;;;;;;;3.67;3.30;;;18.50;99.90;;;;;;5049692;28;20327;-72
2023/06/23 00:57:52;;;;;;;4.07;2.80;;;18.40;99.90;;;;;;5049334;28;20211;-72
2023/06/23 01:00:19;;;;;;;3.95;3.40;;;18.40;99.90;;;;;;5050425;28;20078;-72
2023/06/23 01:02:49;;;;;;;4.57;3.60;;;18.40;99.90;;;;;;5049721;28;20021;-72
2023/06/23 01:05:16;;;;;;;4.55;3.38;;;18.40;99.90;;;;;;5050013;28;20033;-71
2023/06/23 01:07:57;;;;;;;5.28;3.53;;;18.40;99.90;;;;;;5049095;28;20029;-72
2023/06/23 01:10:38;;;;;;;4.18;3.10;;;18.40;99.90;;;;;;5049738;28;20499;-72
2023/06/23 01:13:17;;;;;;;6.22;3.55;;;18.40;99.90;;;;;;5049824;28;20032;-71
2023/06/23 01:15:52;;;;;;;3.95;3.50;;;18.30;99.90;;;;;;5049074;28;20108;-72
2023/06/23 01:18:40;;;;;;;3.80;3.50;;;18.30;99.90;;;;;;5050139;28;20025;-72
2023/06/23 01:21:09;;;;;;;3.40;3.10;;;18.30;99.90;;;;;;5049489;28;20021;-72
2023/06/23 01:24:21;;;;;;;4.10;3.67;;;18.30;99.90;;;;;;5049477;28;20397;-73
2023/06/23 01:27:34;;;;;;;3.67;3.13;;;18.30;99.90;;;;;;5049482;28;20029;-72
2023/06/23 01:30:05;;;;;;;4.53;3.60;;;18.20;99.90;;;;;;5017403;28;20122;-70
2023/06/23 01:32:45;;;;;;;4.47;3.88;;;18.20;99.90;;;;;;5049524;28;20063;-72
2023/06/23 01:35:20;;;;;;;4.13;3.78;;;18.20;99.90;;;;;;5049240;28;20033;-72
2023/06/23 01:37:49;;;;;;;5.20;3.47;;;18.20;99.90;;;;;;5049038;28;20032;-72
2023/06/23 01:40:18;;;;;;;6.60;3.90;;;18.20;99.90;;;;;;5049434;28;20145;-72
2023/06/23 01:42:53;;;;;;;4.30;3.55;;;18.20;99.90;;;;;;5048846;28;20033;-72
2023/06/23 01:45:22;;;;;;;3.95;3.50;;;18.20;99.90;;;;;;5047962;28;20482;-72
2023/06/23 01:47:49;;;;;;;3.63;3.28;;;18.20;99.90;;;;;;5047053;28;20077;-72
2023/06/23 01:50:18;;;;;;;3.97;3.58;;;18.30;99.90;;;;;;5049188;28;20033;-71
2023/06/23 01:52:45;;;;;;;4.47;3.75;;;18.30;99.90;;;;;;5048571;28;20028;-72
2023/06/23 01:55:13;;;;;;;4.07;3.50;;;18.30;99.90;;;;;;5049320;28;20044;-72
2023/06/23 01:57:42;;;;;;;4.75;3.60;;;18.20;99.90;;;;;;5048943;28;20083;-73
2023/06/23 02:00:13;;;;;;;4.72;4.03;;;18.20;99.90;;;;;;5051054;28;20107;-71
2023/06/23 02:02:42;;;;;;;5.65;3.70;;;18.20;99.90;;;;;;5052743;28;20068;-73
2023/06/23 02:05:09;;;;;;;4.65;4.00;;;18.20;99.90;;;;;;5052613;28;20036;-72
2023/06/23 02:07:37;;;;;;;5.68;3.70;;;18.20;99.90;;;;;;5052757;28;20151;-72
2023/06/23 02:10:05;;;;;;;4.43;4.03;;;18.20;99.90;;;;;;5051926;28;20021;-71
2023/06/23 02:12:37;;;;;;;6.10;4.47;;;18.20;99.90;;;;;;5053202;28;20049;-72
2023/06/23 02:15:05;;;;;;;5.10;3.93;;;18.20;99.90;;;;;;5052715;28;20036;-72
2023/06/23 02:17:31;;;;;;;7.53;4.40;;;18.20;99.90;;;;;;5053011;28;20039;-72
2023/06/23 02:19:59;;;;;;;4.82;4.07;;;18.10;99.90;;;;;;5050836;28;20041;-72
2023/06/23 02:22:28;;;;;;;4.93;3.60;;;18.10;99.90;;;;;;5052608;28;20120;-72
2023/06/23 02:24:55;;;;;;;6.75;4.22;;;18.10;99.90;;;;;;5052091;28;20025;-71
2023/06/23 02:27:22;;;;;;;4.90;3.72;;;18.10;99.90;;;;;;5052199;28;20094;-71
2023/06/23 02:29:50;;;;;;;4.22;3.70;;;18.10;99.90;;;;;;5052008;28;20025;-72
2023/06/23 02:32:17;;;;;;;4.25;3.85;;;18.10;99.90;;;;;;5052698;28;20484;-71
2023/06/23 02:34:46;;;;;;;7.07;4.20;;;18.10;99.90;;;;;;5051833;28;20332;-73
2023/06/23 02:37:16;;;;;;;5.03;4.18;;;18.10;99.90;;;;;;5052270;28;20025;-72
2023/06/23 02:39:48;;;;;;;7.13;4.38;;;18.10;99.90;;;;;;5051742;28;20057;-73
2023/06/23 02:42:19;;;;;;;6.60;4.70;;;18.10;99.90;;;;;;5052669;28;20035;-72
2023/06/23 02:45:12;;;;;;;5.00;4.05;;;18.10;99.90;;;;;;5052183;28;20059;-72
2023/06/23 02:47:40;;;;;;;8.18;4.50;;;18.10;99.90;;;;;;5052470;28;20034;-71
2023/06/23 02:50:11;;;;;;;6.53;4.18;;;18.20;99.90;;;;;;5050414;28;20383;-72
2023/06/23 02:52:42;;;;;;;4.40;4.00;;;18.20;99.90;;;;;;5052569;28;20051;-72
2023/06/23 02:55:09;;;;;;;5.20;3.78;;;18.20;99.90;;;;;;5051722;28;20181;-71
2023/06/23 02:57:35;;;;;;;5.15;3.90;;;18.20;99.90;;;;;;5052251;28;20029;-71
2023/06/23 03:00:05;;;;;;;4.82;4.22;;;18.20;99.90;;;;;;5051459;28;20127;-71
2023/06/23 03:02:34;;;;;;;6.10;4.13;;;18.30;99.90;;;;;;5052196;28;20517;-71
2023/06/23 03:05:00;;;;;;;5.10;3.85;;;18.30;99.90;;;;;;5051148;28;20036;-72
2023/06/23 03:07:27;;;;;;;4.75;3.88;;;18.30;99.90;;;;;;5051758;28;20025;-72
2023/06/23 03:09:53;;;;;;;6.53;4.35;;;18.30;99.90;;;;;;5050947;28;20108;-72
2023/06/23 03:12:19;;;;;;;6.38;4.63;;;18.30;99.90;;;;;;5052028;28;20029;-71
2023/06/23 03:14:45;;;;;;;7.53;4.32;;;18.30;99.90;;;;;;5050894;28;20109;-74
2023/06/23 03:17:22;;;;;;;5.10;3.50;;;18.30;99.90;;;;;;5051619;28;20037;-72
2023/06/23 03:20:02;;;;;;;6.28;3.97;;;18.30;99.90;;;;;;5050746;28;20025;-72
2023/06/23 03:22:47;;;;;;;5.97;3.80;;;18.30;99.90;;;;;;5051394;28;20021;-72
2023/06/23 03:25:20;;;;;;;6.00;4.07;;;18.30;99.90;;;;;;5050198;28;20071;-72
2023/06/23 03:27:47;;;;;;;5.53;3.88;;;18.30;99.90;;;;;;5050763;28;20096;-73
2023/06/23 03:30:23;;;;;;;4.43;4.03;;;18.30;99.90;;;;;;5050094;28;20159;-72
2023/06/23 03:32:52;;;;;;;4.50;3.40;;;18.30;99.90;;;;;;5050953;28;20025;-72
2023/06/23 03:35:32;;;;;;;4.53;3.58;;;18.30;99.90;;;;;;5051523;28;20435;-72
2023/06/23 03:38:06;;;;;;;6.18;3.78;;;18.30;99.90;;;;;;5050723;28;20040;-72
2023/06/23 03:40:39;;;;;;;5.65;3.80;;;18.30;99.90;;;;;;5049823;28;20442;-71
2023/06/23 03:43:14;;;;;;;6.47;3.83;;;18.30;99.90;;;;;;5050362;28;20692;-72
2023/06/23 03:45:41;;;;;;;6.07;3.85;;;18.30;99.90;;;;;;5051360;28;20238;-72
2023/06/23 03:48:11;;;;;;;5.47;3.80;;;18.30;99.90;;;;;;5050845;28;20408;-72
2023/06/23 03:50:39;;;;;;;5.78;4.22;;;18.30;99.90;;;;;;5050762;28;20029;-72
2023/06/23 03:53:06;;;;;;;4.75;3.55;;;18.30;99.90;;;;;;5050517;28;20025;-72
2023/06/23 03:55:34;;;;;;;5.47;4.00;;;18.30;99.90;;;;;;5050949;28;20029;-72
2023/06/23 03:58:04;;;;;;;6.63;4.13;;;18.30;99.90;;;;;;5050506;28;20112;-72
2023/06/23 04:00:34;;;;;;;4.00;3.35;;;18.30;99.90;;;;;;5050777;28;20472;-72
2023/06/23 04:03:05;;;;;;;3.78;3.30;;;18.30;99.90;;;;;;5050113;28;20021;-72
2023/06/23 04:05:33;;;;;;;4.22;3.58;;;18.30;99.90;;;;;;5051161;28;20025;-71
2023/06/23 04:08:01;;;;;;;4.38;3.50;;;18.20;99.90;;;;;;5049939;28;20051;-72
2023/06/23 04:10:28;;;;;;;4.00;3.60;;;18.20;99.90;;;;;;5050775;28;20522;-72
2023/06/23 04:12:56;;;;;;;5.50;3.50;;;18.20;99.90;;;;;;5050522;28;20033;-71
2023/06/23 04:15:24;;;;;;;4.30;3.50;;;18.20;99.90;;;;;;5050432;28;20120;-72
2023/06/23 04:17:52;;;;;;;5.38;3.22;;;18.20;99.90;;;;;;5049990;28;20029;-72
2023/06/23 04:20:19;;;;;;;5.40;3.25;;;18.20;99.90;;;;;;5050560;28;20025;-72
2023/06/23 04:22:46;;;;;;;3.70;3.10;;;18.10;99.90;;;;;;5049812;28;20398;-71
2023/06/23 04:25:14;;;;;;;4.30;3.25;;;18.10;99.90;;;;;;5048594;28;20039;-72
2023/06/23 04:27:42;;;;;;;7.10;2.80;;;18.10;99.90;;;;;;5050083;28;20430;-71
2023/06/23 04:30:09;;;;;;;6.00;3.15;;;18.10;99.90;;;;;;5050002;28;20083;-72
2023/06/23 04:32:36;;;;;;;5.57;2.78;;;18.10;99.90;;;;;;5050125;28;20024;-71
2023/06/23 04:35:02;;;;;;;3.03;2.72;;;18.20;99.90;;;;;;5049635;28;20138;-72
2023/06/23 04:37:40;;;;;;;5.07;2.67;;;18.20;99.90;;;;;;5050346;28;20061;-71
2023/06/23 04:40:12;;;;;;;3.25;2.58;;;18.20;99.90;;;;;;5049848;28;20033;-71
2023/06/23 04:42:45;;;;;;;4.53;2.72;;;18.20;99.90;;;;;;5050145;28;20033;-72
2023/06/23 04:45:16;;;;;;;7.63;3.25;;;18.20;99.90;;;;;;5050198;28;20033;-72
2023/06/23 04:47:45;;;;;;;4.93;2.97;;;18.20;99.90;;;;;;5049986;28;20079;-72
2023/06/23 04:50:14;;;;;;;4.63;3.25;;;18.20;99.90;;;;;;5049875;28;20036;-72
2023/06/23 04:52:49;;;;;;;5.78;2.85;;;18.20;99.90;;;;;;5050438;28;20060;-72
2023/06/23 04:55:18;;;;;;;4.70;3.10;;;18.20;99.90;;;;;;5049884;28;20040;-71
2023/06/23 04:57:47;;;;;;;4.70;2.80;;;18.20;99.90;;;;;;5050299;28;20055;-72
2023/06/23 05:00:16;;;;;;;4.70;2.72;;;18.20;99.90;;;;;;5049536;28;20032;-72
2023/06/23 05:02:45;;;;;;;5.97;2.63;;;18.30;99.90;;;;;;5049920;28;20414;-72
2023/06/23 05:05:15;;;;;;;5.13;3.13;;;18.30;99.90;;;;;;5049538;28;20036;-72
2023/06/23 05:07:42;;;;;;;3.20;2.80;;;18.30;99.90;;;;;;5049589;28;20102;-72
2023/06/23 05:10:09;;;;;;;4.82;2.83;;;18.30;99.90;;;;;;5049470;28;20079;-72
2023/06/23 05:12:37;;;;;;;4.30;3.03;;;18.30;99.90;;;;;;5049083;28;20414;-72
2023/06/23 05:15:07;;;;;;;4.13;2.75;;;18.20;99.90;;;;;;5049622;28;20039;-72
2023/06/23 05:17:37;;;;;;;4.40;2.85;;;18.30;99.90;;;;;;5050161;28;20494;-72
2023/06/23 05:20:06;;;;;;;3.65;2.78;;;18.30;99.90;;;;;;5049448;28;20071;-72
2023/06/23 05:22:34;;;;;;;6.20;3.05;;;18.30;99.90;;;;;;5050271;28;20327;-72
2023/06/23 05:25:04;;;;;;;5.15;2.88;;;18.30;99.90;;;;;;5049865;28;20021;-72
2023/06/23 05:27:32;;;;;;;4.70;2.92;;;18.30;99.90;;;;;;5050145;28;20025;-71
2023/06/23 05:29:59;;;;;;;4.32;3.10;;;18.30;99.90;;;;;;5049860;28;20508;-72
2023/06/23 05:32:30;;;;;;;4.65;3.08;;;18.30;99.90;;;;;;5050412;28;20028;-72
2023/06/23 05:35:00;;;;;;;4.60;2.80;;;18.20;99.90;;;;;;5052861;28;20033;-72
2023/06/23 05:37:27;;;;;;;3.97;2.75;;;18.20;99.90;;;;;;5053466;28;20048;-71
2023/06/23 05:39:56;;;;;;;3.88;2.70;;;18.30;99.90;;;;;;5053405;28;20021;-73
2023/06/23 05:42:22;;;;;;;6.20;2.80;;;18.20;99.90;;;;;;5053337;28;20100;-71
2023/06/23 05:44:48;;;;;;;3.15;2.70;;;18.20;99.90;;;;;;5053519;28;20179;-71
2023/06/23 05:47:22;;;;;;;4.25;2.38;;;18.20;99.90;;;;;;5052700;28;20096;-71
2023/06/23 05:49:51;;;;;;;5.47;2.67;;;18.20;99.90;;;;;;5053219;28;20069;-72
2023/06/23 05:52:19;;;;;;;5.22;2.75;;;18.20;99.90;;;;;;5052529;28;20135;-71
2023/06/23 05:54:47;;;;;;;3.88;2.80;;;18.10;99.90;;;;;;5053545;28;20025;-71
2023/06/23 05:57:31;;;;;;;2.92;2.40;;;18.10;99.90;;;;;;5051381;28;20173;-71
2023/06/23 06:00:06;;;;;;;4.50;2.55;;;18.10;99.90;;;;;;5052024;28;20028;-72
2023/06/23 06:02:35;;;;;;;2.72;2.50;;;18.10;99.90;;;;;;5053194;28;20029;-71
2023/06/23 06:05:05;;;;;;;2.95;2.10;;;18.10;99.90;;;;;;5052578;28;20029;-71
2023/06/23 06:07:32;;;;;;;2.50;2.30;;;18.10;99.90;;;;;;5051942;28;20061;-71
2023/06/23 06:10:01;;;;;;;5.25;2.50;;;18.10;99.90;;;;;;5052475;28;20091;-72
2023/06/23 06:12:28;;;;;;;3.35;2.47;;;18.10;99.90;;;;;;5053426;28;20017;-71
2023/06/23 06:14:57;;;;;;;2.92;2.65;;;18.00;99.90;;;;;;5053192;28;20447;-73
2023/06/23 06:17:24;;;;;;;3.22;2.67;;;18.10;99.90;;;;;;5053120;28;20021;-72
2023/06/23 06:19:52;;;;;;;2.70;2.47;;;18.10;99.90;;;;;;5052986;28;20032;-72
2023/06/23 06:22:19;;;;;;;3.63;2.22;;;18.10;99.90;;;;;;5052802;28;20347;-72
2023/06/23 06:24:45;;;;;;;3.47;2.08;;;18.10;99.90;;;;;;5051682;28;20060;-71
2023/06/23 06:27:13;;;;;;;3.30;2.28;;;18.10;99.90;;;;;;5052201;28;20037;-72
2023/06/23 06:29:40;;;;;;;2.80;2.42;;;18.10;99.90;;;;;;5053113;28;20498;-72
2023/06/23 06:32:07;;;;;;;3.63;2.40;;;18.10;99.90;;;;;;5052189;28;20025;-72
2023/06/23 06:34:35;;;;;;;3.33;2.15;;;18.10;99.90;;;;;;5052678;28;20041;-72
2023/06/23 06:37:02;;;;;;;4.05;2.80;;;18.10;99.90;;;;;;5052194;28;20025;-71
2023/06/23 06:39:32;;;;;;;3.33;2.20;;;18.10;99.90;;;;;;5052818;28;20048;-72
2023/06/23 06:41:58;;;;;;;2.72;2.10;;;18.10;99.90;;;;;;5050769;28;20060;-73
2023/06/23 06:44:24;;;;;;;5.00;2.22;;;18.10;99.90;;;;;;5052373;28;20060;-71
2023/06/23 06:46:52;;;;;;;2.25;1.98;;;18.20;99.90;;;;;;5051598;28;20447;-71
2023/06/23 06:49:20;;;;;;;3.83;2.05;;;18.20;99.90;;;;;;5052066;28;20142;-72
2023/06/23 06:51:46;;;;;;;2.28;2.08;;;18.20;99.90;;;;;;5052811;28;20097;-71
2023/06/23 06:54:12;;;;;;;3.05;1.92;;;18.20;99.90;;;;;;5051667;28;20115;-72
2023/06/23 06:56:39;;;;;;;3.35;1.98;;;18.20;99.90;;;;;;5051124;28;20064;-71
2023/06/23 06:59:05;;;;;;;2.97;2.22;;;18.20;99.90;;;;;;5052107;28;20032;-71
2023/06/23 07:01:31;;;;;;;2.22;2.03;;;18.20;99.90;;;;;;5052488;28;20108;-71
2023/06/23 07:03:57;;;;;;;2.10;1.90;;;18.20;99.90;;;;;;5052124;28;20155;-73
2023/06/23 07:06:25;;;;;;;3.03;2.05;;;18.20;99.90;;;;;;5052232;28;20028;-71
2023/06/23 07:08:51;;;;;;;3.45;2.40;;;18.20;99.90;;;;;;5052310;28;20115;-72
2023/06/23 07:11:17;;;;;;;4.35;2.38;;;18.30;99.90;;;;;;5051691;28;20187;-71
2023/06/23 07:13:43;;;;;;;2.58;2.13;;;18.30;99.90;;;;;;5052042;28;20037;-71
2023/06/23 07:16:09;;;;;;;3.60;2.15;;;18.40;99.90;;;;;;5051215;28;20033;-72
2023/06/23 07:18:34;;;;;;;2.55;2.05;;;18.40;99.90;;;;;;5051777;28;20047;-73
2023/06/23 07:21:00;;;;;;;3.70;2.20;;;18.50;99.90;;;;;;5050073;28;20111;-74
2023/06/23 07:23:26;;;;;;;3.13;2.03;;;18.50;99.90;;;;;;5051673;28;20032;-73
2023/06/23 07:25:52;;;;;;;2.67;1.90;;;18.60;99.90;;;;;;5051466;28;20029;-73
2023/06/23 07:28:17;;;;;;;4.68;2.15;;;18.60;99.90;;;;;;5050682;28;20478;-72
2023/06/23 07:30:43;;;;;;;2.33;1.90;;;18.60;99.90;;;;;;5051044;28;20056;-72
2023/06/23 07:33:09;;;;;;;2.50;2.00;;;18.60;99.90;;;;;;5050990;28;20465;-72
2023/06/23 07:35:35;;;;;;;2.80;2.00;;;18.70;99.90;;;;;;5050200;28;20079;-72
2023/06/23 07:38:01;;;;;;;2.22;1.92;;;18.60;99.90;;;;;;5050990;28;20029;-73
2023/06/23 07:40:27;;;;;;;2.40;1.98;;;18.50;99.90;;;;;;5051145;28;20068;-72
2023/06/23 07:42:53;;;;;;;4.13;2.38;;;18.60;99.90;;;;;;5051191;28;20056;-72
2023/06/23 07:45:18;;;;;;;2.20;2.00;;;18.60;99.90;;;;;;5049334;28;20442;-72
2023/06/23 07:47:44;;;;;;;5.00;1.83;;;18.70;99.90;;;;;;5051017;28;20167;-73
2023/06/23 07:50:10;;;;;;;2.83;1.90;;;18.80;99.90;;;;;;5050269;28;20358;-72
2023/06/23 07:52:36;;;;;;;2.75;2.00;;;18.90;99.90;;;;;;5050778;28;20442;-72
2023/06/23 07:55:02;;;;;;;3.00;2.10;;;18.90;99.90;;;;;;5050293;28;20502;-74
2023/06/23 07:57:28;;;;;;;3.58;1.80;;;19.00;99.90;;;;;;5049687;28;20025;-72
2023/06/23 07:59:54;;;;;;;4.18;1.67;;;19.00;99.90;;;;;;5050624;28;20175;-72
2023/06/23 08:02:19;;;;;;;2.35;1.52;;;19.00;99.90;;;;;;5050460;28;20410;-73
2023/06/23 08:04:45;;;;;;;2.20;1.90;;;19.10;99.90;;;;;;5050074;28;20036;-72
2023/06/23 08:07:11;;;;;;;2.72;1.67;;;19.10;99.90;;;;;;5050136;28;20041;-73
2023/06/23 08:09:37;;;;;;;6.15;2.10;;;19.10;99.90;;;;;;5050285;28;20108;-72
2023/06/23 08:12:02;;;;;;;2.90;1.80;;;19.10;99.90;;;;;;5050851;28;20075;-74
2023/06/23 08:14:28;;;;;;;2.42;1.90;;;19.00;99.90;;;;;;5050267;28;20120;-72
2023/06/23 08:16:54;;;;;;;3.30;1.88;;;19.00;99.90;;;;;;5050302;28;20029;-72
2023/06/23 08:19:22;;;;;;;3.78;2.30;;;19.10;99.90;;;;;;5049925;28;20041;-73
2023/06/23 08:21:54;;;;;;;4.13;2.00;;;19.00;99.90;;;;;;5050485;28;20488;-72
2023/06/23 08:24:20;;;;;;;3.30;2.07;;;19.10;99.90;;;;;;5049911;28;20100;-72
2023/06/23 08:26:45;;;;;;;2.58;2.17;;;19.10;99.90;;;;;;5050632;28;20060;-72
2023/06/23 08:29:11;;;;;;;5.68;2.00;;;19.10;99.90;;;;;;5048967;28;20483;-72
2023/06/23 08:31:37;;;;;;;2.15;1.77;;;19.20;99.90;;;;;;5050310;28;20052;-72
2023/06/23 08:34:02;;;;;;;3.38;1.92;;;19.20;99.90;;;;;;5049991;28;20083;-73
2023/06/23 08:36:28;;;;;;;2.70;1.80;;;19.30;99.90;;;;;;5049938;28;20078;-72
2023/06/23 08:38:54;;;;;;;4.18;2.10;;;19.30;99.90;;;;;;5050870;28;20496;-72
2023/06/23 08:41:21;;;;;;;4.15;2.08;;;19.30;99.90;;;;;;5049828;28;20029;-73
2023/06/23 08:43:48;;;;;;;4.90;2.35;;;19.40;99.90;;;;;;5049770;28;20062;-73
2023/06/23 08:46:15;;;;;;;3.08;1.80;;;19.40;99.90;;;;;;5049206;28;20167;-73
2023/06/23 08:48:46;;;;;;;3.47;1.73;;;19.50;99.90;;;;;;5049931;28;20132;-72
2023/06/23 08:51:13;;;;;;;2.03;1.60;;;19.70;99.90;;;;;;5049467;28;20044;-72
2023/06/23 08:53:39;;;;;;;5.60;1.95;;;19.80;99.90;;;;;;5049895;28;20029;-72
2023/06/23 08:56:06;;;;;;;3.53;2.20;;;19.80;99.90;;;;;;5049586;28;20043;-74
2023/06/23 08:58:32;;;;;;;5.00;1.55;;;19.90;99.90;;;;;;5050052;28;20017;-72
2023/06/23 09:00:58;;;;;;;3.30;1.67;;;20.00;99.90;;;;;;5050158;28;20328;-72
2023/06/23 09:03:24;;;;;;;2.42;1.40;;;20.00;99.90;;;;;;5049305;28;20452;-73
2023/06/23 09:05:50;;;;;;;4.47;1.85;;;20.00;99.90;;;;;;5049954;28;20104;-72
2023/06/23 09:08:16;;;;;;;2.47;1.52;;;20.10;99.90;;;;;;5050525;28;20036;-73
2023/06/23 09:10:42;;;;;;;3.53;1.75;;;20.10;99.90;;;;;;5053969;28;20139;-72
2023/06/23 09:13:24;;;;;;;1.65;1.50;;;20.10;99.90;;;;;;5053968;28;20029;-74
2023/06/23 09:15:51;;;;;;;3.45;1.40;;;20.10;99.90;;;;;;5054278;28;20033;-72
2023/06/23 09:18:17;;;;;;;2.95;1.52;;;20.20;99.90;;;;;;5053711;28;20135;-73
2023/06/23 09:20:45;;;;;;;2.53;1.10;;;20.20;99.90;;;;;;5052873;28;20535;-72
2023/06/23 09:23:15;;;;;;;3.70;1.30;;;20.30;99.90;;;;;;5053752;28;20087;-73
2023/06/23 09:25:42;;;;;;;10.05;1.98;;;20.30;99.90;;;;;;5052856;28;20128;-74
2023/06/23 09:28:21;;;;;;;4.38;1.40;;;20.40;99.90;;;;;;5053709;28;20049;-75
2023/06/23 09:30:46;;;;;;;2.13;1.70;;;20.60;99.90;;;;;;5054100;28;20033;-71
2023/06/23 09:33:12;;;;;;;2.92;1.48;;;20.70;99.90;;;;;;5053240;28;20382;-72
2023/06/23 09:35:46;;;;;;;3.45;1.60;;;20.80;99.90;;;;;;5053682;28;20029;-71
2023/06/23 09:38:12;;;;;;;1.80;1.40;;;20.80;99.90;;;;;;5053262;28;20117;-72
2023/06/23 09:40:38;;;;;;;2.30;1.40;;;20.90;99.90;;;;;;5053778;28;20029;-72
2023/06/23 09:43:04;;;;;;;4.78;1.67;;;21.00;99.90;;;;;;5053386;28;20497;-71
2023/06/23 09:45:33;;;;;;;1.92;1.10;;;21.10;99.90;;;;;;5052985;28;20119;-72
2023/06/23 09:47:59;;;;;;;1.73;1.00;;;21.40;99.90;;;;;;5053337;28;20036;-72
2023/06/23 09:50:27;;;;;;;1.90;1.00;;;21.40;99.90;;;;;;5052363;28;20025;-72
2023/06/23 09:53:05;;;;;;;1.70;0.98;;;21.60;99.90;;;;;;5053171;28;20075;-72
2023/06/23 09:55:31;;;;;;;1.73;0.75;;;21.80;26.50;;;;;;5052528;28;20052;-72
2023/06/23 09:58:02;;;;;;;1.67;0.70;;;21.80;1.00;;;;;;5053176;28;20051;-72
2023/06/23 10:00:32;;;;;;;1.10;0.70;;;21.80;1.00;;;;;;5052328;28;20025;-72
2023/06/23 10:02:59;;;;;;;2.40;0.70;;;21.80;1.00;;;;;;5052944;28;20047;-72
2023/06/23 10:05:25;;;;;;;1.90;0.65;;;21.80;1.00;;;;;;5052393;28;20036;-72
2023/06/23 10:08:06;;;;;;;1.27;0.60;;;21.70;1.00;;;;;;5053048;28;20029;-72
2023/06/23 10:10:33;;;;;;;0.95;0.40;;;21.80;1.00;;;;;;5052680;28;20040;-72
2023/06/23 10:12:58;;;;;;;2.22;0.38;;;21.90;1.00;;;;;;5053183;28;20052;-73
2023/06/23 10:15:25;;;;;;;2.78;0.50;;;21.90;1.00;;;;;;5052833;28;20155;-74
2023/06/23 10:17:52;;;;;;;1.30;0.45;;;22.00;9.90;;;;;;5052826;28;20103;-72
2023/06/23 10:20:17;;;;;;;0.63;0.30;;;22.00;13.10;;;;;;5051399;28;20033;-74
2023/06/23 10:22:44;;;;;;;1.67;0.52;;;21.90;1.20;;;;;;5052029;28;20446;-73
2023/06/23 10:25:11;;;;;;;2.88;0.40;;;21.90;15.70;;;;;;5052038;28;20470;-75
2023/06/23 10:27:37;;;;;;;2.75;0.30;;;21.90;2.50;;;;;;5052034;28;20052;-73
2023/06/23 10:30:10;;;;;;;0.57;0.47;;;21.90;1.00;;;;;;5051518;28;20028;-73
2023/06/23 10:32:37;;;;;;;1.27;0.40;;;22.00;4.80;;;;;;5052245;28;20029;-72
2023/06/23 10:35:08;;;;;;;2.72;0.40;;;21.90;18.20;;;;;;5051982;28;20402;-72
2023/06/23 10:37:35;;;;;;;1.20;0.52;;;22.00;9.20;;;;;;5051602;28;20037;-71
2023/06/23 10:40:04;;;;;;;1.85;0.40;;;22.00;20.40;;;;;;5052088;28;20466;-72
2023/06/23 10:42:33;;;;;;;1.17;0.30;;;22.00;1.70;;;;;;5050862;28;20044;-72
2023/06/23 10:45:01;;;;;;;1.00;0.43;;;21.90;12.70;;;;;;5052152;28;20192;-72
2023/06/23 10:47:27;;;;;;;1.35;0.30;;;22.00;25.50;;;;;;5051613;28;20032;-72
2023/06/23 10:49:55;;;;;;;0.65;0.60;;;22.10;24.20;;;;;;5052005;28;20021;-73
2023/06/23 10:52:22;;;;;;;2.17;0.38;;;22.10;18.20;;;;;;5051174;28;20112;-73
2023/06/23 10:54:47;;;;;;;0.13;0.10;;;22.20;21.90;;;;;;5051673;28;20043;-73
2023/06/23 10:57:14;;;;;;;2.47;0.40;;;22.20;7.50;;;;;;5051585;28;20104;-75
2023/06/23 10:59:59;;;;;;;1.33;0.77;;;22.20;11.30;;;;;;5051863;28;20036;-73
2023/06/23 11:02:25;;;;;;;0.95;0.68;;;22.20;1.00;;;;;;5049952;28;20423;-74
2023/06/23 11:05:14;;;;;;;0.80;0.40;;;22.20;9.60;;;;;;5051994;28;20064;-72
2023/06/23 11:08:03;;;;;;;1.35;0.60;;;22.20;15.00;;;;;;5051848;28;20079;-73
2023/06/23 11:10:47;;;;;;;3.10;0.50;;;22.30;20.60;;;;;;5051123;28;20095;-72
2023/06/23 11:13:13;;;;;;;2.30;0.38;;;22.50;21.70;;;;;;5051994;28;20033;-74
2023/06/23 11:15:47;;;;;;;0.50;0.50;;;22.50;11.60;;;;;;5051649;28;20036;-73
2023/06/23 11:18:14;;;;;;;0.68;0.40;;;22.50;25.30;;;;;;5052029;28;20103;-74
2023/06/23 11:20:43;;;;;;;3.60;0.50;;;22.50;32.30;;;;;;5051760;28;20050;-73
2023/06/23 11:23:13;;;;;;;1.00;0.40;;;22.60;28.40;;;;;;5051713;28;20045;-73
2023/06/23 11:25:50;;;;;;;0.40;0.30;;;22.60;22.50;;;;;;5051015;28;20132;-75
2023/06/23 11:28:24;;;;;;;0.35;0.32;;;22.40;22.00;;;;;;5050878;28;20053;-76
2023/06/23 11:30:59;;;;;;;4.00;0.63;;;22.30;17.90;;;;;;5051245;28;20036;-74
2023/06/23 11:33:29;;;;;;;7.40;0.90;;;22.30;47.10;;;;;;5050616;28;20100;-74
2023/06/23 11:36:03;;;;;;;2.25;0.63;;;22.30;41.50;;;;;;5051083;28;20147;-73
2023/06/23 11:38:30;;;;;;;1.70;0.50;;;22.40;40.40;;;;;;5050656;28;20032;-73
2023/06/23 11:40:57;;;;;;;5.38;0.70;;;22.50;49.40;;;;;;5050782;28;20052;-73
2023/06/23 11:43:23;;;;;;;1.38;0.43;;;22.60;29.10;;;;;;5050752;28;20035;-73
2023/06/23 11:45:56;;;;;;;3.85;0.90;;;22.60;13.00;;;;;;5050958;28;20036;-73
2023/06/23 11:48:27;;;;;;;1.42;0.45;;;22.60;24.30;;;;;;5050282;28;20029;-74
2023/06/23 11:50:57;;;;;;;1.70;0.55;;;22.60;8.10;;;;;;5050969;28;20021;-73
2023/06/23 11:53:23;;;;;;;2.15;0.70;;;22.50;25.90;;;;;;5050243;28;20389;-73
2023/06/23 11:55:50;;;;;;;1.42;0.50;;;22.30;20.80;;;;;;5051098;28;20134;-74
2023/06/23 11:58:17;;;;;;;1.00;0.50;;;22.20;20.20;;;;;;5050696;28;20090;-75
2023/06/23 12:00:42;;;;;;;0.85;0.60;;;22.20;29.30;;;;;;5050129;28;20033;-72
2023/06/23 12:03:15;;;;;;;3.15;0.88;;;22.10;31.40;;;;;;5050741;28;20312;-73
2023/06/23 12:05:41;;;;;;;1.60;0.80;;;22.10;41.90;;;;;;5050135;28;20036;-73
2023/06/23 12:08:08;;;;;;;2.83;0.80;;;22.00;42.70;;;;;;5050780;28;20037;-73
2023/06/23 12:10:41;;;;;;;1.15;0.70;;;22.10;48.90;;;;;;5050113;28;20048;-73
2023/06/23 12:13:11;;;;;;;0.85;0.75;;;22.20;48.50;;;;;;5051027;28;20021;-73
2023/06/23 12:15:37;;;;;;;2.15;0.60;;;22.30;59.30;;;;;;5049830;28;20032;-73
2023/06/23 12:18:07;;;;;;;1.27;0.60;;;22.30;47.30;;;;;;5049116;28;20056;-72
2023/06/23 12:20:37;;;;;;;1.38;0.82;;;22.30;46.10;;;;;;5050077;28;20028;-73
2023/06/23 12:23:05;;;;;;;1.95;0.82;;;22.40;41.40;;;;;;5050902;28;20122;-73
2023/06/23 12:25:33;;;;;;;4.30;0.80;;;22.40;38.90;;;;;;5050364;28;20443;-73
2023/06/23 12:28:03;;;;;;;1.05;0.75;;;22.30;57.70;;;;;;5048890;28;20041;-73
2023/06/23 12:30:41;;;;;;;1.00;0.60;;;22.30;55.10;;;;;;5050097;28;20478;-74
2023/06/23 12:33:14;;;;;;;3.10;0.77;;;22.30;72.30;;;;;;5050544;28;20060;-73
2023/06/23 12:35:40;;;;;;;0.82;0.80;;;22.30;90.90;;;;;;5049092;28;20108;-73
2023/06/23 12:38:10;;;;;;;2.15;0.90;;;22.20;99.90;;;;;;5049866;28;20033;-73
2023/06/23 12:40:37;;;;;;;2.05;0.85;;;22.20;99.90;;;;;;5048452;28;20473;-73
2023/06/23 12:43:03;;;;;;;1.98;0.52;;;22.10;99.90;;;;;;5049344;28;20029;-73
2023/06/23 12:45:29;;;;;;;1.45;0.40;;;22.20;92.30;;;;;;5049431;28;20040;-74
2023/06/23 12:47:55;;;;;;;1.20;0.60;;;22.40;99.90;;;;;;5050004;28;20093;-73
2023/06/23 12:50:28;;;;;;;0.57;0.57;;;22.40;92.90;;;;;;5049948;28;20111;-75
2023/06/23 12:52:58;;;;;;;1.63;0.60;;;22.60;99.90;;;;;;5050067;28;20033;-73
2023/06/23 12:55:24;;;;;;;0.50;0.50;;;22.80;86.10;;;;;;5049469;28;20106;-74
2023/06/23 12:57:50;;;;;;;0.43;0.43;;;22.90;98.60;;;;;;5050012;28;20029;-73